Spain, South Dakota
Current Conditions -  °F | °C
As of 8:35 AM on Sunday 23 Nov 2014 (Local Time) from KGWR Reporting Station
Broken Clouds Broken Clouds  
Wind Chill: 30°   Ceiling: 8500
Heat Index: 37°   Visibility: 10mi
Dew Point: 37°   Wind: 10mph
Humidity: 100%   Direction: 240°WSW
Pressure: 29.47"   Gusts: NA
Location:  45.8144°N, 97.7089°W
Report Text: KGWR 231435Z AUTO 24009KT 10SM BKN085 03/03 A2947 RMK A01 P000
Loading
Personal Weather Stations






























Interactive Weather Map New forecast layout! Learn more

10-Day Weather Forecast

Advertisements
Track Severe Weather on mobile